sensor_id;sensor_type;location;lat;lon;timestamp;pressure;altitude;pressure_sealevel;temperature;humidity
70458;BME280;57919;56.194;95.716;2022-08-30T00:01:25;99500.06;;;4.33;78.75
70458;BME280;57919;56.194;95.716;2022-08-30T00:11:33;99504.97;;;4.41;78.54
70458;BME280;57919;56.194;95.716;2022-08-30T00:21:42;99488.31;;;4.36;78.93
70458;BME280;57919;56.194;95.716;2022-08-30T00:31:47;99522.75;;;4.42;78.69
70458;BME280;57919;56.194;95.716;2022-08-30T00:41:57;99535.75;;;4.64;79.13
70458;BME280;57919;56.194;95.716;2022-08-30T00:52:04;99539.78;;;5.01;78.70
70458;BME280;57919;56.194;95.716;2022-08-30T01:02:10;99543.00;;;5.36;78.87
70458;BME280;57919;56.194;95.716;2022-08-30T01:12:15;99552.00;;;5.77;78.74
70458;BME280;57919;56.194;95.716;2022-08-30T01:33:01;99561.78;;;7.27;76.56
70458;BME280;57919;56.194;95.716;2022-08-30T01:43:27;99568.56;;;7.71;76.03
70458;BME280;57919;56.194;95.716;2022-08-30T01:54:06;99588.44;;;8.06;75.74
70458;BME280;57919;56.194;95.716;2022-08-30T02:04:53;99577.91;;;8.77;74.48
70458;BME280;57919;56.194;95.716;2022-08-30T02:15:09;99596.78;;;10.92;76.08
70458;BME280;57919;56.194;95.716;2022-08-30T02:25:11;99586.84;;;12.77;70.24
70458;BME280;57919;56.194;95.716;2022-08-30T02:35:13;99597.41;;;12.20;69.72
70458;BME280;57919;56.194;95.716;2022-08-30T02:45:15;99587.72;;;11.97;69.99
70458;BME280;57919;56.194;95.716;2022-08-30T02:55:17;99587.81;;;12.56;68.07
70458;BME280;57919;56.194;95.716;2022-08-30T03:05:19;99588.63;;;13.36;65.95
70458;BME280;57919;56.194;95.716;2022-08-30T03:15:22;99562.13;;;13.67;63.17
70458;BME280;57919;56.194;95.716;2022-08-30T03:25:26;99587.63;;;13.37;60.65
70458;BME280;57919;56.194;95.716;2022-08-30T03:35:31;99583.25;;;13.92;58.34
70458;BME280;57919;56.194;95.716;2022-08-30T03:45:34;99595.19;;;14.18;57.56
70458;BME280;57919;56.194;95.716;2022-08-30T03:55:36;99585.91;;;13.55;57.25
70458;BME280;57919;56.194;95.716;2022-08-30T04:05:37;99583.78;;;13.20;57.19
70458;BME280;57919;56.194;95.716;2022-08-30T04:15:39;99577.78;;;14.02;56.16
70458;BME280;57919;56.194;95.716;2022-08-30T04:25:42;99575.88;;;16.51;51.25
70458;BME280;57919;56.194;95.716;2022-08-30T04:35:46;99568.25;;;17.78;47.17
70458;BME280;57919;56.194;95.716;2022-08-30T04:45:48;99563.94;;;18.63;45.64
70458;BME280;57919;56.194;95.716;2022-08-30T04:55:52;99551.97;;;18.48;45.20
70458;BME280;57919;56.194;95.716;2022-08-30T05:05:54;99533.97;;;19.61;42.79
70458;BME280;57919;56.194;95.716;2022-08-30T05:15:56;99533.34;;;19.51;41.72
70458;BME280;57919;56.194;95.716;2022-08-30T05:25:58;99537.69;;;19.23;42.12
70458;BME280;57919;56.194;95.716;2022-08-30T05:36:06;99522.50;;;19.35;41.55
70458;BME280;57919;56.194;95.716;2022-08-30T05:46:13;99504.03;;;19.29;40.60
70458;BME280;57919;56.194;95.716;2022-08-30T05:56:25;99502.75;;;19.17;40.73
70458;BME280;57919;56.194;95.716;2022-08-30T06:06:31;99497.81;;;19.35;39.63
70458;BME280;57919;56.194;95.716;2022-08-30T06:16:37;99483.09;;;18.20;39.91
70458;BME280;57919;56.194;95.716;2022-08-30T06:26:43;99468.22;;;18.54;40.27
70458;BME280;57919;56.194;95.716;2022-08-30T06:36:47;99449.00;;;18.62;39.93
70458;BME280;57919;56.194;95.716;2022-08-30T06:46:48;99451.63;;;18.16;40.31
70458;BME280;57919;56.194;95.716;2022-08-30T06:56:51;99452.50;;;17.45;42.00
70458;BME280;57919;56.194;95.716;2022-08-30T07:06:53;99454.13;;;16.40;42.46
70458;BME280;57919;56.194;95.716;2022-08-30T07:16:55;99421.44;;;16.65;42.58
70458;BME280;57919;56.194;95.716;2022-08-30T07:26:57;99422.13;;;16.67;41.76
70458;BME280;57919;56.194;95.716;2022-08-30T07:36:59;99406.94;;;16.89;41.38
70458;BME280;57919;56.194;95.716;2022-08-30T07:47:01;99387.59;;;17.15;40.42
70458;BME280;57919;56.194;95.716;2022-08-30T07:57:03;99380.28;;;17.07;41.05
70458;BME280;57919;56.194;95.716;2022-08-30T08:07:04;99388.81;;;17.12;40.88
70458;BME280;57919;56.194;95.716;2022-08-30T08:17:07;99390.31;;;17.31;40.49
70458;BME280;57919;56.194;95.716;2022-08-30T08:27:10;99388.09;;;17.34;40.10
70458;BME280;57919;56.194;95.716;2022-08-30T08:37:12;99383.50;;;17.82;39.19
70458;BME280;57919;56.194;95.716;2022-08-30T08:47:21;99400.75;;;17.91;38.52
70458;BME280;57919;56.194;95.716;2022-08-30T08:57:33;99375.88;;;17.61;38.32
70458;BME280;57919;56.194;95.716;2022-08-30T09:07:39;99382.75;;;17.41;39.21
70458;BME280;57919;56.194;95.716;2022-08-30T09:17:51;99379.09;;;16.69;39.55
70458;BME280;57919;56.194;95.716;2022-08-30T09:28:08;99367.75;;;16.31;40.35
70458;BME280;57919;56.194;95.716;2022-08-30T09:38:27;99368.06;;;16.12;40.31
70458;BME280;57919;56.194;95.716;2022-08-30T09:48:32;99356.88;;;15.73;41.52
70458;BME280;57919;56.194;95.716;2022-08-30T10:19:30;99354.56;;;15.26;41.22
70458;BME280;57919;56.194;95.716;2022-08-30T10:29:52;99339.03;;;15.18;41.73
70458;BME280;57919;56.194;95.716;2022-08-30T10:39:58;99345.72;;;14.98;41.72
70458;BME280;57919;56.194;95.716;2022-08-30T10:50:33;99337.38;;;14.74;42.26
70458;BME280;57919;56.194;95.716;2022-08-30T11:00:49;99331.72;;;14.49;41.53
70458;BME280;57919;56.194;95.716;2022-08-30T11:21:30;99320.53;;;14.17;43.04
70458;BME280;57919;56.194;95.716;2022-08-30T11:31:39;99297.81;;;14.08;43.79
70458;BME280;57919;56.194;95.716;2022-08-30T11:41:46;99292.31;;;14.00;44.59
70458;BME280;57919;56.194;95.716;2022-08-30T11:52:33;99269.84;;;13.80;44.99
70458;BME280;57919;56.194;95.716;2022-08-30T12:35:42;99278.50;;;12.27;52.79
70458;BME280;57919;56.194;95.716;2022-08-30T12:45:46;99267.19;;;11.64;53.61
70458;BME280;57919;56.194;95.716;2022-08-30T12:56:06;99288.03;;;11.14;54.98
70458;BME280;57919;56.194;95.716;2022-08-30T13:06:09;99287.94;;;10.64;56.20
70458;BME280;57919;56.194;95.716;2022-08-30T13:26:13;99279.34;;;9.97;57.80
70458;BME280;57919;56.194;95.716;2022-08-30T13:36:15;99282.06;;;9.65;58.34
70458;BME280;57919;56.194;95.716;2022-08-30T13:46:18;99276.00;;;9.41;59.26
70458;BME280;57919;56.194;95.716;2022-08-30T13:56:21;99284.75;;;9.22;60.13
70458;BME280;57919;56.194;95.716;2022-08-30T14:06:24;99282.69;;;9.03;60.89
70458;BME280;57919;56.194;95.716;2022-08-30T14:16:27;99272.03;;;8.79;61.07
70458;BME280;57919;56.194;95.716;2022-08-30T14:26:32;99286.97;;;8.72;60.85
70458;BME280;57919;56.194;95.716;2022-08-30T14:36:35;99256.56;;;8.36;61.33
70458;BME280;57919;56.194;95.716;2022-08-30T14:46:38;99268.44;;;8.34;61.99
70458;BME280;57919;56.194;95.716;2022-08-30T14:56:40;99256.72;;;8.11;62.90
70458;BME280;57919;56.194;95.716;2022-08-30T15:06:44;99243.47;;;8.08;62.78
70458;BME280;57919;56.194;95.716;2022-08-30T15:16:47;99250.94;;;8.04;63.08
70458;BME280;57919;56.194;95.716;2022-08-30T15:26:49;99245.25;;;7.85;64.11
70458;BME280;57919;56.194;95.716;2022-08-30T15:36:51;99244.94;;;7.66;64.37
70458;BME280;57919;56.194;95.716;2022-08-30T15:46:54;99240.44;;;7.42;64.81
70458;BME280;57919;56.194;95.716;2022-08-30T15:56:56;99227.03;;;7.30;65.69
70458;BME280;57919;56.194;95.716;2022-08-30T16:07:01;99213.53;;;7.19;65.52
70458;BME280;57919;56.194;95.716;2022-08-30T16:17:03;99214.09;;;7.11;66.61
70458;BME280;57919;56.194;95.716;2022-08-30T16:27:04;99208.13;;;6.95;66.57
70458;BME280;57919;56.194;95.716;2022-08-30T16:37:06;99199.09;;;6.96;66.95
70458;BME280;57919;56.194;95.716;2022-08-30T16:47:08;99192.75;;;6.97;67.26
70458;BME280;57919;56.194;95.716;2022-08-30T16:57:10;99182.03;;;6.84;67.51
70458;BME280;57919;56.194;95.716;2022-08-30T17:07:12;99165.31;;;6.68;67.62
70458;BME280;57919;56.194;95.716;2022-08-30T17:17:15;99174.56;;;6.64;68.15
70458;BME280;57919;56.194;95.716;2022-08-30T17:27:17;99164.72;;;6.52;68.23
70458;BME280;57919;56.194;95.716;2022-08-30T17:37:20;99156.31;;;6.56;68.42
70458;BME280;57919;56.194;95.716;2022-08-30T17:47:22;99149.38;;;6.41;69.11
70458;BME280;57919;56.194;95.716;2022-08-30T17:57:24;99139.69;;;6.38;68.90
70458;BME280;57919;56.194;95.716;2022-08-30T18:07:26;99143.53;;;6.47;69.10
70458;BME280;57919;56.194;95.716;2022-08-30T18:17:28;99110.06;;;6.27;69.42
70458;BME280;57919;56.194;95.716;2022-08-30T18:27:29;99109.94;;;6.29;69.25
70458;BME280;57919;56.194;95.716;2022-08-30T18:37:32;99131.63;;;6.38;69.48
70458;BME280;57919;56.194;95.716;2022-08-30T18:47:34;99118.97;;;6.28;69.47
70458;BME280;57919;56.194;95.716;2022-08-30T18:57:37;99129.81;;;6.39;69.56
70458;BME280;57919;56.194;95.716;2022-08-30T19:07:40;99105.78;;;6.25;69.76
70458;BME280;57919;56.194;95.716;2022-08-30T19:17:43;99098.38;;;6.15;69.42
70458;BME280;57919;56.194;95.716;2022-08-30T19:27:46;99077.16;;;6.00;70.06
70458;BME280;57919;56.194;95.716;2022-08-30T19:37:48;99088.09;;;5.97;70.40
70458;BME280;57919;56.194;95.716;2022-08-30T19:47:50;99088.66;;;5.89;70.44
70458;BME280;57919;56.194;95.716;2022-08-30T19:57:53;99060.84;;;5.65;71.27
70458;BME280;57919;56.194;95.716;2022-08-30T20:07:57;99070.06;;;5.61;71.43
70458;BME280;57919;56.194;95.716;2022-08-30T20:17:59;99064.16;;;5.56;71.60
70458;BME280;57919;56.194;95.716;2022-08-30T20:28:01;99052.78;;;5.52;71.71
70458;BME280;57919;56.194;95.716;2022-08-30T20:38:04;99055.69;;;5.49;71.84
70458;BME280;57919;56.194;95.716;2022-08-30T20:48:07;99047.09;;;5.57;71.65
70458;BME280;57919;56.194;95.716;2022-08-30T20:58:09;99051.28;;;5.61;71.78
70458;BME280;57919;56.194;95.716;2022-08-30T21:08:11;99040.97;;;5.55;72.33
70458;BME280;57919;56.194;95.716;2022-08-30T21:18:13;99032.28;;;5.38;72.95
70458;BME280;57919;56.194;95.716;2022-08-30T21:28:15;99029.84;;;5.35;73.57
70458;BME280;57919;56.194;95.716;2022-08-30T21:38:18;99026.94;;;5.38;74.02
70458;BME280;57919;56.194;95.716;2022-08-30T21:48:20;99012.44;;;5.28;74.58
70458;BME280;57919;56.194;95.716;2022-08-30T21:58:22;99006.34;;;5.26;74.22
70458;BME280;57919;56.194;95.716;2022-08-30T22:08:24;98989.81;;;5.19;75.04
70458;BME280;57919;56.194;95.716;2022-08-30T22:18:26;98990.78;;;5.31;74.86
70458;BME280;57919;56.194;95.716;2022-08-30T22:28:28;98976.72;;;5.40;74.86
70458;BME280;57919;56.194;95.716;2022-08-30T22:38:30;98973.94;;;5.42;75.05
70458;BME280;57919;56.194;95.716;2022-08-30T22:48:39;98967.78;;;5.53;76.08
70458;BME280;57919;56.194;95.716;2022-08-30T22:58:42;98951.38;;;5.57;75.93
70458;BME280;57919;56.194;95.716;2022-08-30T23:08:44;98947.81;;;5.69;76.31
70458;BME280;57919;56.194;95.716;2022-08-30T23:18:47;98928.53;;;5.88;76.03
70458;BME280;57919;56.194;95.716;2022-08-30T23:28:49;98920.03;;;6.42;77.11
70458;BME280;57919;56.194;95.716;2022-08-30T23:39:09;98915.19;;;6.58;77.14
70458;BME280;57919;56.194;95.716;2022-08-30T23:49:30;98897.81;;;7.20;77.71
70458;BME280;57919;56.194;95.716;2022-08-30T23:59:51;98886.31;;;7.94;76.48
